Latest Weather Observations for Lockhart River

IDQ60801

Issued at 6:02 pm EST Monday 25 September 2017 (issued every 30 minutes, with the page automatically refreshed every 10 minutes)

About weather observations | Map of weather stations | Latest weather observations for QLD | Other Formats
Station Details ID: 028008 Name: LOCKHART RIVER AIRPORT Lat: -12.79 Lon: 143.30 Height: 18.5 m
Data from the previous 72 hours. | See also: Recent months at Lockhart River
Date/Time
EST
Temp
°C
App
Temp
°C
Dew
Point
°C
Rel
Hum
%
Delta-T
°C
Wind Press
QNH
hPa
Press
MSL
hPa
Rain since
9am
mm
Dir  Spd
km/h
Gust
km/h
Spd
kts
Gust
kts
25/06:00pm 25.9 27.7 22.6 82 2.2 SE 17 26 9 14 1012.0 1011.9 0.0
25/05:59pm 26.0 27.9 22.7 82 2.2 ESE 17 26 9 14 1012.0 1011.9 0.0
25/05:30pm 26.2 28.1 22.7 81 2.4 ESE 17 26 9 14 1011.8 1011.7 0.0
25/05:27pm 26.2 28.0 22.5 80 2.5 ESE 17 26 9 14 1011.8 1011.7 0.0
25/05:17pm 26.3 27.7 22.6 80 2.5 ESE 19 26 10 14 1011.8 1011.7 0.0
25/05:00pm 26.6 27.9 22.4 78 2.8 ESE 19 24 10 13 1011.7 1011.6 0.0
25/04:30pm 26.8 28.6 22.6 78 2.8 ESE 17 24 9 13 1011.6 1011.5 0.0
25/04:00pm 27.0 29.2 22.6 77 3.0 ESE 15 24 8 13 1011.4 1011.3 0.0
25/03:30pm 27.4 28.5 22.4 74 3.4 ESE 20 30 11 16 1011.4 1011.3 0.0
25/03:00pm 27.3 28.5 22.5 75 3.2 ESE 20 28 11 15 1011.6 1011.5 0.0
25/02:30pm 28.2 28.9 22.2 70 4.0 ESE 22 35 12 19 1011.7 1011.6 0.0
25/02:00pm 28.6 29.1 21.9 67 4.5 ESE 22 33 12 18 1012.0 1011.9 0.0
25/01:30pm 28.3 28.7 21.8 68 4.4 E 22 33 12 18 1012.4 1012.3 0.0
25/01:00pm 29.2 30.1 21.9 64 4.9 ESE 20 33 11 18 1012.6 1012.5 0.0
25/12:30pm 29.8 31.2 22.8 66 4.8 ESE 20 32 11 17 1013.0 1012.9 0.0
25/12:00pm 28.3 28.7 21.8 68 4.4 ESE 22 32 12 17 1013.4 1013.3 0.0
25/11:58am 28.8 29.8 22.1 67 4.5 ESE 20 32 11 17 1013.4 1013.3 0.0
25/11:30am 28.5 29.2 23.0 72 3.8 ESE 24 35 13 19 1013.8 1013.7 0.0
25/11:07am 29.3 29.9 22.8 68 4.4 ESE 24 33 13 18 1014.1 1014.0 0.0
25/11:00am 28.6 29.5 22.6 70 4.1 ESE 22 35 12 19 1014.2 1014.1 0.0
25/10:41am 27.9 28.2 22.2 71 3.8 ESE 24 37 13 20 1014.2 1014.1 0.0
25/10:30am 28.2 28.9 22.2 70 4.0 ESE 22 32 12 17 1014.2 1014.1 0.0
25/10:00am 27.5 27.5 22.4 73 3.4 SE 26 35 14 19 1014.4 1014.3 0.0
25/09:30am 28.2 28.9 22.2 70 4.0 SE 22 35 12 19 1014.4 1014.3 0.0
25/09:00am 27.4 28.4 22.1 73 3.6 SE 20 33 11 18 1014.3 1014.2 0.0
25/08:30am 26.0 27.1 22.3 80 2.5 ESE 20 33 11 18 1014.2 1014.1 0.0
25/08:00am 25.8 26.9 22.3 81 2.3 SE 20 30 11 16 1013.9 1013.8 0.0
25/07:30am 25.2 26.5 22.3 84 1.9 SE 19 28 10 15 1013.6 1013.5 0.0
25/07:00am 24.9 26.0 22.0 84 1.9 SE 19 28 10 15 1013.3 1013.2 0.0
25/06:30am 24.5 26.0 22.0 86 1.7 SE 17 20 9 11 1013.0 1012.9 0.0
25/06:00am 24.4 26.3 22.1 87 1.5 SE 15 20 8 11 1012.7 1012.6 0.0
25/05:30am 24.5 26.8 22.0 86 1.7 SE 13 20 7 11 1012.4 1012.3 0.0
25/05:00am 24.2 26.4 21.9 87 1.5 SE 13 20 7 11 1012.1 1012.0 0.0
25/04:58am 24.2 26.4 21.9 87 1.5 SE 13 20 7 11 1012.1 1012.0 0.0
25/04:38am 24.2 26.4 21.9 87 1.5 SE 13 19 7 10 1011.9 1011.8 0.0
25/04:30am 24.3 26.1 21.8 86 1.7 SE 15 20 8 11 1011.8 1011.7 0.0
25/04:27am 24.4 25.8 21.9 86 1.7 SE 17 20 9 11 1011.8 1011.7 0.0
25/04:10am 24.3 25.7 21.8 86 1.7 SE 17 24 9 13 1011.7 1011.6 0.0
25/04:00am 24.5 25.9 21.8 85 1.8 SE 17 24 9 13 1011.7 1011.6 0.0
25/03:35am 24.7 26.2 22.0 85 1.8 SE 17 24 9 13 1011.7 1011.6 0.0
25/03:30am 24.6 26.4 21.9 85 1.8 SE 15 24 8 13 1011.7 1011.6 0.0
25/03:00am 24.5 25.8 21.6 84 1.9 SE 17 22 9 12 1011.8 1011.7 0.0
25/02:46am 24.6 26.2 21.5 83 2.1 SE 15 24 8 13 1011.9 1011.8 0.0
25/02:35am 24.6 25.8 21.5 83 2.1 ESE 17 20 9 11 1012.0 1011.9 0.0
25/02:32am 24.7 26.0 21.6 83 2.1 ESE 17 22 9 12 1012.0 1011.9 0.0
25/02:30am 24.7 26.0 21.6 83 2.1 ESE 17 22 9 12 1012.0 1011.9 0.0
25/02:00am 24.8 26.1 21.7 83 2.1 SE 17 24 9 13 1012.2 1012.1 0.0
25/01:50am 24.7 25.4 21.6 83 2.1 SE 20 30 11 16 1012.2 1012.1 0.0
25/01:33am 24.7 26.4 21.6 83 2.1 ESE 15 24 8 13 1012.3 1012.2 0.0
25/01:30am 24.7 26.4 21.6 83 2.1 SE 15 24 8 13 1012.4 1012.3 0.0
25/01:14am 24.7 26.0 21.6 83 2.1 ESE 17 28 9 15 1012.4 1012.3 0.0
25/01:04am 24.7 26.1 21.8 84 1.9 SE 17 20 9 11 1012.5 1012.4 0.0
25/01:00am 24.6 25.9 21.7 84 1.9 SE 17 24 9 13 1012.5 1012.4 0.0
25/12:30am 24.6 26.3 21.7 84 1.9 ESE 15 24 8 13 1012.7 1012.6 0.0
25/12:00am 24.5 26.2 21.6 84 1.9 SE 15 24 8 13 1012.9 1012.8 0.0
 
Date/Time
EST
Temp
°C
App
Temp
°C
Dew
Point
°C
Rel
Hum
%
Delta-T
°C
Wind Press
QNH
hPa
Press
MSL
hPa
Rain since
9am
mm
Dir  Spd
km/h
Gust
km/h
Spd
kts
Gust
kts
24/11:30pm 24.6 25.5 21.5 83 2.1 ESE 19 28 10 15 1013.1 1013.0 0.0
24/11:00pm 24.7 25.5 21.4 82 2.2 SE 19 26 10 14 1013.2 1013.1 0.0
24/10:30pm 25.0 25.9 21.5 81 2.3 SE 19 26 10 14 1013.1 1013.0 0.0
24/10:00pm 24.9 26.5 21.4 81 2.3 SE 15 20 8 11 1013.2 1013.1 0.0
24/09:30pm 25.0 25.6 21.1 79 2.6 SE 19 26 10 14 1013.1 1013.0 0.0
24/09:00pm 25.0 26.1 21.3 80 2.4 SE 17 24 9 13 1013.0 1012.9 0.0
24/08:30pm 25.2 26.2 21.1 78 2.7 SE 17 24 9 13 1012.6 1012.5 0.0
24/08:28pm 25.2 26.2 21.1 78 2.7 SE 17 24 9 13 1012.6 1012.5 0.0
24/08:00pm 25.2 26.0 20.7 76 3.0 SE 17 24 9 13 1012.3 1012.2 0.0
24/07:30pm 25.3 26.2 20.8 76 3.0 SE 17 22 9 12 1011.9 1011.8 0.0
24/07:00pm 25.3 25.6 20.3 74 3.3 SE 19 26 10 14 1011.7 1011.6 0.0
24/06:30pm 25.4 25.5 20.0 72 3.5 SE 19 30 10 16 1011.7 1011.6 0.0
24/06:00pm 25.6 25.6 20.2 72 3.5 SE 20 26 11 14 1011.5 1011.4 0.0
24/05:30pm 25.6 25.6 20.2 72 3.5 ESE 20 30 11 16 1011.5 1011.4 0.0
24/05:00pm 26.1 26.1 20.2 70 3.9 SE 20 26 11 14 1011.3 1011.2 0.0
24/04:30pm 26.1 26.1 20.2 70 3.8 SE 20 30 11 16 1011.3 1011.2 0.0
24/04:00pm 26.2 25.4 20.1 69 4.0 ESE 24 32 13 17 1011.3 1011.2 0.0
24/03:30pm 26.8 26.6 20.6 69 4.1 ESE 22 35 12 19 1011.5 1011.4 0.0
24/03:00pm 26.8 26.8 20.2 67 4.3 ESE 20 30 11 16 1011.7 1011.6 0.0
24/02:30pm 27.0 26.7 20.3 66 4.4 ESE 22 32 12 17 1012.0 1011.9 0.0
24/02:00pm 27.2 26.0 20.0 64 4.7 ESE 26 43 14 23 1012.3 1012.2 0.0
24/01:30pm 29.0 28.5 20.7 61 5.5 ESE 24 39 13 21 1012.5 1012.4 0.0
24/01:00pm 28.4 28.4 20.2 61 5.4 ESE 20 32 11 17 1012.9 1012.8 0.0
24/12:30pm 28.1 27.2 19.9 61 5.4 ESE 24 33 13 18 1013.2 1013.1 0.0
24/12:00pm 28.9 28.5 20.1 59 5.8 SE 22 35 12 19 1013.6 1013.5 0.0
24/11:30am 28.6 27.7 19.8 59 5.8 SE 24 35 13 19 1014.0 1013.9 0.0
24/11:00am 28.7 29.2 21.2 64 5.0 ESE 20 30 11 16 1014.7 1014.6 0.0
24/10:30am 28.7 28.2 20.7 62 5.3 ESE 24 33 13 18 1014.9 1014.8 0.0
24/10:00am 27.7 26.9 20.0 63 5.0 ESE 24 33 13 18 1014.9 1014.8 0.0
24/09:30am 26.7 26.4 20.3 68 4.2 ESE 22 35 12 19 1015.1 1015.1 0.0
24/09:00am 26.3 26.0 20.4 70 3.9 ESE 22 30 12 16 1014.9 1014.8 0.0
24/08:30am 26.1 26.0 20.7 72 3.5 SE 22 32 12 17 1014.6 1014.5 0.0
24/08:00am 25.5 25.2 20.3 73 3.4 SE 22 33 12 18 1014.2 1014.1 0.0
24/07:30am 25.4 25.1 20.4 74 3.3 SE 22 33 12 18 1013.9 1013.8 0.0
24/07:00am 24.6 25.0 20.7 79 2.6 SE 19 26 10 14 1013.5 1013.4 0.0
24/06:30am 24.2 24.9 20.5 80 2.4 SE 17 22 9 12 1013.2 1013.1 0.0
24/06:00am 24.3 25.1 20.6 80 2.4 SE 17 24 9 13 1013.0 1012.9 0.0
24/05:30am 24.1 24.8 20.4 80 2.4 ESE 17 26 9 14 1012.7 1012.6 0.0
24/05:00am 24.3 25.1 20.6 80 2.4 SE 17 22 9 12 1012.7 1012.6 0.0
24/04:30am 24.4 25.2 20.7 80 2.4 ESE 17 24 9 13 1012.5 1012.4 0.0
24/04:00am 24.6 25.0 20.7 79 2.6 ESE 19 26 10 14 1012.5 1012.4 0.0
24/03:30am 24.6 25.4 20.7 79 2.6 SE 17 24 9 13 1012.2 1012.1 0.0
24/03:00am 24.6 24.9 20.5 78 2.7 SE 19 28 10 15 1012.3 1012.2 0.0
24/02:30am 24.6 24.9 20.5 78 2.7 SE 19 26 10 14 1012.5 1012.4 0.0
24/02:00am 24.4 24.5 20.3 78 2.7 SE 20 30 11 16 1012.7 1012.6 0.0
24/01:30am 24.4 24.6 20.1 77 2.8 ESE 19 24 10 13 1012.9 1012.8 0.0
24/01:00am 24.2 24.7 20.1 78 2.7 ESE 17 24 9 13 1013.0 1012.9 0.0
24/12:30am 24.3 24.8 20.0 77 2.8 SE 17 26 9 14 1013.5 1013.4 0.0
24/12:00am 24.5 25.3 20.6 79 2.5 SE 17 24 9 13 1013.7 1013.6 0.0
 
Date/Time
EST
Temp
°C
App
Temp
°C
Dew
Point
°C
Rel
Hum
%
Delta-T
°C
Wind Press
QNH
hPa
Press
MSL
hPa
Rain since
9am
mm
Dir  Spd
km/h
Gust
km/h
Spd
kts
Gust
kts
23/11:30pm 24.8 25.0 20.5 77 2.8 SE 20 30 11 16 1013.9 1013.8 0.0
23/11:00pm 24.9 25.4 20.8 78 2.7 ESE 19 28 10 15 1013.9 1013.8 0.0
23/10:32pm 25.0 24.9 20.7 77 2.8 ESE 22 33 12 18 1013.9 1013.8 0.0
23/10:30pm 25.0 25.3 20.7 77 2.8 ESE 20 33 11 18 1013.9 1013.8 0.0
23/10:06pm 25.1 25.8 21.2 79 2.6 SE 19 28 10 15 1013.8 1013.7 0.0
23/10:00pm 25.1 25.7 21.0 78 2.7 SE 19 28 10 15 1013.8 1013.7 0.0
23/09:30pm 25.0 25.9 20.9 78 2.7 SE 17 26 9 14 1013.7 1013.6 0.0
23/09:00pm 25.1 24.4 21.0 78 2.7 SE 26 35 14 19 1013.4 1013.3 0.0
23/08:30pm 25.2 25.6 20.9 77 2.8 SE 20 28 11 15 1013.3 1013.2 0.0
23/08:00pm 25.3 25.6 20.8 76 3.0 SE 20 30 11 16 1013.0 1012.9 0.0
23/07:30pm 25.5 26.2 21.2 77 2.8 SE 19 26 10 14 1012.9 1012.8 0.0
23/07:00pm 25.5 25.9 21.0 76 3.0 SE 20 28 11 15 1012.7 1012.6 0.0
23/06:30pm 25.6 25.9 20.8 75 3.2 SE 20 28 11 15 1012.5 1012.4 0.0
23/06:00pm 25.8 25.5 20.4 72 3.5 SE 22 32 12 17 1012.4 1012.3 0.0
23/05:30pm 26.3 25.0 20.6 71 3.7 SE 28 33 15 18 1012.2 1012.1 0.0
23/05:00pm 26.7 26.1 20.5 69 4.1 SE 24 37 13 20 1012.3 1012.2 0.0
23/04:30pm 27.5 27.0 20.8 67 4.4 ESE 24 35 13 19 1012.1 1012.0 0.0
23/04:00pm 28.2 28.0 20.5 63 5.1 ESE 22 32 12 17 1011.9 1011.8 0.0
23/03:30pm 28.7 28.1 20.4 60 5.5 SE 24 37 13 20 1012.0 1011.9 0.0
23/03:00pm 28.7 28.1 20.4 60 5.5 SE 24 35 13 19 1012.2 1012.1 0.0
23/02:30pm 28.9 28.3 20.4 60 5.6 ESE 24 33 13 18 1012.4 1012.3 0.0
23/02:00pm 29.6 28.6 20.5 58 6.0 SE 26 37 14 20 1012.8 1012.7 0.0
23/01:30pm 28.9 27.6 20.6 61 5.5 SE 28 37 15 20 1013.2 1013.1 0.0
23/01:00pm 28.7 27.3 20.4 60 5.5 SE 28 35 15 19 1013.7 1013.6 0.0
23/12:30pm 29.4 27.8 20.8 60 5.7 SE 30 46 16 25 1014.0 1013.9 0.0
23/12:00pm 28.5 26.1 20.0 60 5.6 SE 32 43 17 23 1014.5 1014.4 0.0
23/11:30am 28.4 27.0 20.4 62 5.3 ESE 28 41 15 22 1015.0 1015.0 0.0
23/11:00am 28.5 26.9 20.0 60 5.6 SE 28 39 15 21 1015.4 1015.4 0.0
23/10:49am 28.5 27.1 20.5 62 5.3 SE 28 46 15 25 1015.5 1015.5 0.0
23/10:30am 28.4 27.4 20.4 62 5.3 SE 26 39 14 21 1015.6 1015.6 0.0
23/10:00am 27.9 26.4 20.2 63 5.0 SE 28 39 15 21 1015.7 1015.7 0.0
23/09:30am 28.1 26.8 20.6 63 4.9 SE 28 41 15 22 1015.7 1015.7 0.0
23/09:00am 27.4 26.5 20.7 67 4.4 ESE 26 41 14 22 1015.6 1015.6 0.0
23/08:30am 26.9 26.2 21.0 70 3.9 SE 26 39 14 21 1015.4 1015.4 0.0
23/08:00am 25.6 25.1 20.8 75 3.2 SE 24 37 13 20 1015.1 1015.1 0.0
23/07:30am 25.1 25.6 21.2 79 2.6 SE 20 28 11 15 1014.7 1014.6 0.0
23/07:00am 24.5 25.6 21.2 82 2.2 ESE 17 24 9 13 1014.4 1014.3 0.0
23/06:30am 24.2 25.2 21.1 83 2.0 SE 17 28 9 15 1013.9 1013.8 0.0
23/06:00am 24.3 24.9 21.0 82 2.2 ESE 19 26 10 14 1013.7 1013.6 0.0
23/05:30am 24.1 24.7 21.0 83 2.0 SE 19 26 10 14 1013.5 1013.4 0.0
23/05:00am 24.0 24.8 20.7 82 2.2 ESE 17 22 9 12 1013.5 1013.4 0.0
23/04:30am 24.1 25.8 21.0 83 2.0 ESE 13 22 7 12 1013.2 1013.1 0.0
23/04:00am 24.0 25.4 21.1 84 1.9 ESE 15 20 8 11 1013.0 1012.9 0.0
23/03:30am 24.0 24.9 20.9 83 2.0 SE 17 24 9 13 1013.0 1012.9 0.0
23/03:16am 24.2 25.3 21.3 84 1.9 ESE 17 28 9 15 1013.0 1012.9 0.0
23/03:04am 24.2 25.3 21.3 84 1.9 ESE 17 24 9 13 1013.1 1013.0 0.0
23/03:00am 24.2 25.3 21.3 84 1.9 ESE 17 24 9 13 1013.1 1013.0 0.0
23/02:30am 24.1 25.6 21.2 84 1.9 SE 15 19 8 10 1013.2 1013.1 0.0
23/02:00am 24.2 25.2 21.1 83 2.0 SE 17 24 9 13 1013.3 1013.2 0.0
23/01:30am 24.3 25.5 21.4 84 1.9 SE 17 22 9 12 1013.5 1013.4 0.0
23/01:00am 24.4 25.5 21.3 83 2.0 SE 17 22 9 12 1013.8 1013.7 0.0
23/12:30am 24.4 25.5 21.3 83 2.0 SE 17 28 9 15 1014.0 1013.9 0.0
23/12:00am 24.4 25.9 21.3 83 2.0 SE 15 24 8 13 1014.2 1014.1 0.0
 
Date/Time
EST
Temp
°C
App
Temp
°C
Dew
Point
°C
Rel
Hum
%
Delta-T
°C
Wind Press
QNH
hPa
Press
MSL
hPa
Rain since
9am
mm
Dir  Spd
km/h
Gust
km/h
Spd
kts
Gust
kts
22/11:30pm 24.4 25.9 21.3 83 2.0 SE 15 19 8 10 1014.5 1014.4 0.0
22/11:00pm 24.3 25.8 21.2 83 2.0 SE 15 20 8 11 1014.5 1014.4 0.0
22/10:30pm 24.4 25.9 21.3 83 2.0 SE 15 24 8 13 1014.6 1014.5 0.0
22/10:00pm 24.7 26.0 21.6 83 2.1 SE 17 22 9 12 1014.6 1014.5 0.0
22/09:30pm 24.8 26.5 21.7 83 2.1 SE 15 19 8 10 1014.6 1014.5 0.0
22/09:00pm 25.1 26.5 21.8 82 2.2 SE 17 22 9 12 1014.5 1014.4 0.0
22/08:30pm 25.1 27.0 22.0 83 2.1 SE 15 20 8 11 1014.4 1014.3 0.0
22/08:23pm 25.1 26.6 22.0 83 2.1 SE 17 20 9 11 1014.3 1014.2 0.0
22/08:07pm 25.0 26.3 21.7 82 2.2 SE 17 24 9 13 1014.3 1014.2 0.0
22/08:00pm 25.1 26.1 21.8 82 2.2 SE 19 26 10 14 1014.2 1014.1 0.0
22/07:35pm 25.2 26.2 21.7 81 2.3 SE 19 28 10 15 1014.0 1013.9 0.0
22/07:30pm 25.2 25.9 21.5 80 2.5 SE 20 28 11 15 1014.0 1013.9 0.0
22/07:16pm 25.4 26.4 21.7 80 2.5 SE 19 26 10 14 1013.9 1013.8 0.0
22/07:00pm 25.4 26.4 21.7 80 2.5 SE 19 28 10 15 1013.8 1013.7 0.0
22/06:30pm 25.5 26.4 21.6 79 2.6 ESE 19 24 10 13 1013.7 1013.6 0.0

Other Formats:

Comma delimited format used in spreadsheet applications
http://www.bom.gov.au/fwo/IDQ60801/IDQ60801.94186.axf

JavaScript Object Notation format (JSON) in row-major order
http://www.bom.gov.au/fwo/IDQ60801/IDQ60801.94186.json